createdAt,value
2018-06-14T00:00:51.881Z,2.90
2018-06-14T00:03:20.773Z,3.37
2018-06-14T00:05:49.658Z,2.65
2018-06-14T00:08:18.530Z,3.02
2018-06-14T00:10:47.429Z,2.90
2018-06-14T00:13:16.289Z,2.47
2018-06-14T00:15:45.187Z,2.70
2018-06-14T00:18:14.102Z,3.30
2018-06-14T00:20:43.010Z,3.20
2018-06-14T00:23:11.938Z,4.10
2018-06-14T00:25:40.818Z,2.90
2018-06-14T00:28:09.704Z,2.77
2018-06-14T00:30:38.700Z,3.30
2018-06-14T00:33:07.576Z,3.20
2018-06-14T00:35:36.644Z,3.37
2018-06-14T00:38:06.810Z,2.90
2018-06-14T00:40:35.745Z,3.20
2018-06-14T00:43:04.613Z,2.83
2018-06-14T00:45:33.460Z,3.40
2018-06-14T00:48:05.492Z,3.40
2018-06-14T00:50:39.309Z,3.90
2018-06-14T00:53:09.314Z,3.40
2018-06-14T00:55:38.248Z,3.10
2018-06-14T00:58:08.571Z,2.77
2018-06-14T01:00:37.505Z,3.60
2018-06-14T01:03:06.372Z,3.17
2018-06-14T01:05:35.229Z,3.90
2018-06-14T01:08:04.135Z,3.22
2018-06-14T01:10:33.089Z,3.33
2018-06-14T01:13:02.006Z,3.27
2018-06-14T01:15:31.044Z,3.50
2018-06-14T01:17:59.924Z,3.30
2018-06-14T01:20:28.813Z,3.43
2018-06-14T01:22:57.723Z,4.00
2018-06-14T01:25:26.758Z,3.03
2018-06-14T01:27:55.626Z,3.10
2018-06-14T01:30:24.510Z,3.13
2018-06-14T01:32:53.273Z,3.00
2018-06-14T01:35:22.162Z,3.50
2018-06-14T01:38:29.431Z,3.50
2018-06-14T01:40:58.302Z,3.50
2018-06-14T01:43:27.115Z,3.63
2018-06-14T01:45:55.962Z,3.47
2018-06-14T01:48:24.766Z,3.47
2018-06-14T01:50:53.628Z,3.60
2018-06-14T01:53:22.468Z,3.50
2018-06-14T01:55:51.276Z,3.30
2018-06-14T01:58:20.108Z,3.00
2018-06-14T02:00:48.984Z,3.50
2018-06-14T02:03:17.825Z,3.63
2018-06-14T02:05:46.681Z,3.42
2018-06-14T02:08:15.524Z,3.47
2018-06-14T02:10:44.367Z,4.50
2018-06-14T02:13:13.171Z,3.92
2018-06-14T02:15:42.032Z,3.42
2018-06-14T02:18:10.863Z,3.85
2018-06-14T02:20:39.719Z,3.72
2018-06-14T02:23:08.564Z,3.65
2018-06-14T02:25:37.411Z,3.17
2018-06-14T02:28:06.261Z,3.13
2018-06-14T02:30:35.074Z,4.47
2018-06-14T02:33:03.941Z,3.93
2018-06-14T02:35:32.777Z,4.00
2018-06-14T02:38:01.621Z,3.70
2018-06-14T02:40:30.415Z,3.85
2018-06-14T02:42:59.241Z,3.27
2018-06-14T02:45:28.137Z,3.97
2018-06-14T02:47:57.001Z,4.12
2018-06-14T02:50:25.871Z,3.97
2018-06-14T02:52:54.777Z,4.37
2018-06-14T02:55:23.689Z,3.93
2018-06-14T02:57:52.582Z,4.37
2018-06-14T03:00:21.439Z,3.45
2018-06-14T03:02:50.272Z,4.00
2018-06-14T03:05:19.095Z,3.90
2018-06-14T03:07:47.965Z,4.67
2018-06-14T03:10:16.833Z,3.67
2018-06-14T03:12:45.634Z,3.60
2018-06-14T03:15:14.551Z,3.67
2018-06-14T03:17:43.405Z,3.70
2018-06-14T03:20:12.319Z,3.67
2018-06-14T03:22:41.260Z,4.00
2018-06-14T03:25:10.121Z,3.87
2018-06-14T03:27:38.958Z,3.87
2018-06-14T03:30:07.876Z,3.87
2018-06-14T03:32:36.772Z,4.13
2018-06-14T03:35:05.638Z,4.03
2018-06-14T03:37:34.517Z,4.27
2018-06-14T03:40:03.422Z,4.40
2018-06-14T03:42:32.352Z,4.17
2018-06-14T03:45:01.256Z,3.90
2018-06-14T03:47:30.965Z,3.50
2018-06-14T03:49:59.872Z,5.00
2018-06-14T03:52:28.778Z,3.52
2018-06-14T03:54:57.675Z,3.75
2018-06-14T03:57:26.586Z,4.58
2018-06-14T03:59:55.520Z,3.87
2018-06-14T04:02:24.418Z,3.93
2018-06-14T04:04:53.384Z,3.57
2018-06-14T04:07:22.321Z,4.07
2018-06-14T04:09:51.250Z,3.80
2018-06-14T04:12:20.170Z,4.37
2018-06-14T04:14:49.012Z,4.00
2018-06-14T04:17:17.865Z,3.80
2018-06-14T04:19:46.773Z,4.60
2018-06-14T04:22:16.572Z,4.30
2018-06-14T04:24:45.970Z,4.43
2018-06-14T04:27:15.082Z,4.20
2018-06-14T04:29:45.175Z,4.60
2018-06-14T04:32:15.720Z,4.50
2018-06-14T04:34:45.689Z,4.20
2018-06-14T04:37:16.659Z,4.60
2018-06-14T04:39:46.114Z,4.87
2018-06-14T04:42:15.053Z,4.50
2018-06-14T04:44:44.092Z,46.73
2018-06-14T04:47:12.919Z,5.47
2018-06-14T04:49:43.413Z,4.93
2018-06-14T04:52:12.834Z,4.53
2018-06-14T04:54:44.137Z,4.73
2018-06-14T04:57:12.991Z,4.83
2018-06-14T04:59:42.466Z,4.40
2018-06-14T05:02:13.541Z,5.30
2018-06-14T05:04:44.826Z,4.67
2018-06-14T05:07:14.264Z,5.20
2018-06-14T05:09:43.758Z,5.07
2018-06-14T05:12:13.144Z,4.75
2018-06-14T05:14:42.289Z,4.12
2018-06-14T05:17:13.099Z,4.45
2018-06-14T05:19:42.856Z,4.08
2018-06-14T05:22:12.018Z,4.70
2018-06-14T05:24:40.842Z,3.87
2018-06-14T05:27:09.797Z,4.27
2018-06-14T05:29:38.746Z,4.87
2018-06-14T05:32:07.727Z,4.60
2018-06-14T05:34:37.532Z,5.40
2018-06-14T05:37:08.169Z,5.37
2018-06-14T05:39:37.411Z,4.13
2018-06-14T05:42:07.661Z,4.90
2018-06-14T05:44:37.926Z,4.33
2018-06-14T05:47:07.035Z,4.50
2018-06-14T05:49:36.046Z,4.70
2018-06-14T05:52:05.007Z,4.87
2018-06-14T05:54:33.915Z,4.10
2018-06-14T05:57:02.830Z,4.33
2018-06-14T05:59:31.801Z,4.40
2018-06-14T06:02:00.637Z,4.60
2018-06-14T06:04:29.542Z,5.20
2018-06-14T06:06:58.409Z,5.03
2018-06-14T06:09:27.303Z,4.22
2018-06-14T06:11:56.192Z,4.40
2018-06-14T06:14:25.029Z,5.27
2018-06-14T06:16:53.896Z,4.60
2018-06-14T06:19:22.788Z,4.03
2018-06-14T06:21:51.689Z,4.50
2018-06-14T06:24:20.510Z,4.93
2018-06-14T06:26:49.376Z,4.95
2018-06-14T06:29:18.226Z,5.27
2018-06-14T06:31:47.193Z,4.43
2018-06-14T06:34:16.056Z,3.97
2018-06-14T06:36:45.638Z,4.97
2018-06-14T06:39:14.568Z,4.90
2018-06-14T06:41:43.434Z,4.13
2018-06-14T06:44:12.320Z,4.23
2018-06-14T06:46:41.131Z,3.90
2018-06-14T06:49:10.044Z,4.37
2018-06-14T06:51:38.867Z,4.13
2018-06-14T06:54:07.786Z,4.70
2018-06-14T06:56:36.692Z,4.10
2018-06-14T06:59:05.607Z,4.33
2018-06-14T07:01:34.500Z,3.90
2018-06-14T07:04:03.332Z,4.30
2018-06-14T07:06:32.252Z,4.97
2018-06-14T07:09:01.077Z,5.00
2018-06-14T07:11:29.997Z,4.13
2018-06-14T07:13:58.798Z,3.80
2018-06-14T07:16:27.708Z,4.80
2018-06-14T07:18:56.757Z,4.23
2018-06-14T07:21:25.626Z,4.20
2018-06-14T07:23:54.565Z,4.77
2018-06-14T07:26:23.456Z,4.40
2018-06-14T07:28:52.391Z,4.33
2018-06-14T07:31:21.288Z,4.90
2018-06-14T07:33:50.199Z,4.27
2018-06-14T07:36:19.037Z,4.60
2018-06-14T07:38:47.936Z,4.07
2018-06-14T07:41:16.837Z,4.57
2018-06-14T07:43:45.770Z,4.80
2018-06-14T07:46:14.684Z,4.60
2018-06-14T07:48:43.573Z,4.70
2018-06-14T07:51:12.487Z,4.90
2018-06-14T07:53:41.360Z,4.10
2018-06-14T07:56:10.392Z,4.30
2018-06-14T07:58:39.293Z,4.60
2018-06-14T08:01:08.213Z,4.53
2018-06-14T08:03:37.122Z,5.20
2018-06-14T08:06:06.062Z,4.10
2018-06-14T08:08:34.937Z,4.80
2018-06-14T08:11:03.832Z,4.40
2018-06-14T08:13:32.711Z,4.87
2018-06-14T08:16:01.643Z,4.70
2018-06-14T08:18:30.521Z,5.50
2018-06-14T08:20:59.572Z,5.27
2018-06-14T08:23:28.455Z,5.50
2018-06-14T08:25:57.336Z,4.80
2018-06-14T08:28:26.211Z,7.75
2018-06-14T08:30:55.114Z,5.37
2018-06-14T08:33:24.005Z,5.43
2018-06-14T08:35:52.868Z,5.30
2018-06-14T08:38:21.742Z,6.00
2018-06-14T08:40:50.666Z,5.50
2018-06-14T08:43:19.569Z,5.40
2018-06-14T08:45:48.460Z,5.80
2018-06-14T08:48:17.386Z,6.35
2018-06-14T08:50:46.318Z,5.30
2018-06-14T08:53:15.227Z,4.97
2018-06-14T08:55:44.779Z,5.30
2018-06-14T08:58:13.949Z,5.57
2018-06-14T09:00:42.933Z,5.03
2018-06-14T09:03:11.916Z,6.33
2018-06-14T09:05:40.849Z,5.13
2018-06-14T09:27:51.125Z,6.45
2018-06-14T09:30:20.029Z,5.80
2018-06-14T09:32:48.910Z,6.57
2018-06-14T09:35:17.827Z,5.60
2018-06-14T09:37:46.729Z,6.20
2018-06-14T09:40:15.640Z,5.80
2018-06-14T09:42:44.527Z,4.97
2018-06-14T09:45:13.399Z,5.90
2018-06-14T09:47:42.246Z,5.10
2018-06-14T09:50:11.186Z,5.90
2018-06-14T09:52:40.131Z,6.60
2018-06-14T09:55:09.586Z,5.10
2018-06-14T09:57:38.663Z,5.57
2018-06-14T10:00:07.674Z,6.35
2018-06-14T10:02:36.598Z,6.30
2018-06-14T10:05:05.595Z,5.58
2018-06-14T10:07:34.497Z,6.53
2018-06-14T10:10:03.413Z,6.60
2018-06-14T10:12:35.055Z,5.67
2018-06-14T10:15:04.860Z,5.80
2018-06-14T10:17:33.804Z,6.20
2018-06-14T10:20:02.729Z,5.97
2018-06-14T10:22:31.639Z,6.10
2018-06-14T10:25:00.579Z,5.78
2018-06-14T10:27:29.441Z,5.17
2018-06-14T10:29:58.264Z,5.33
2018-06-14T10:32:27.194Z,5.57
2018-06-14T10:34:56.085Z,6.20
2018-06-14T10:37:25.052Z,5.67
2018-06-14T10:39:53.927Z,6.07
2018-06-14T10:42:22.826Z,5.03
2018-06-14T10:44:51.719Z,5.33
2018-06-14T10:47:20.581Z,5.77
2018-06-14T10:49:49.473Z,5.77
2018-06-14T10:52:18.346Z,6.43
2018-06-14T10:54:47.219Z,5.67
2018-06-14T10:57:16.197Z,5.17
2018-06-14T10:59:45.243Z,5.10
2018-06-14T11:02:14.186Z,4.60
2018-06-14T11:04:43.150Z,5.53
2018-06-14T11:07:12.018Z,5.50
2018-06-14T11:09:40.908Z,5.37
2018-06-14T11:12:09.878Z,5.17
2018-06-14T11:14:38.769Z,5.43
2018-06-14T11:17:07.634Z,4.13
2018-06-14T11:19:36.504Z,5.50
2018-06-14T11:22:05.528Z,5.00
2018-06-14T11:24:34.431Z,4.73
2018-06-14T11:27:03.904Z,4.85
2018-06-14T11:29:32.801Z,4.67
2018-06-14T11:32:01.689Z,5.45
2018-06-14T11:34:30.580Z,4.90
2018-06-14T11:36:59.582Z,4.95
2018-06-14T11:39:28.433Z,5.43
2018-06-14T11:41:57.304Z,4.37
2018-06-14T11:44:26.217Z,5.95
2018-06-14T11:46:55.099Z,4.60
2018-06-14T11:49:23.981Z,4.63
2018-06-14T11:51:52.882Z,4.13
2018-06-14T11:54:21.769Z,5.10
2018-06-14T11:56:50.660Z,4.60
2018-06-14T11:59:28.481Z,4.00
2018-06-14T12:01:57.397Z,4.20
2018-06-14T12:04:26.286Z,3.70
2018-06-14T12:06:55.120Z,4.50
2018-06-14T12:09:23.975Z,4.37
2018-06-14T12:11:52.857Z,4.00
2018-06-14T12:14:21.808Z,3.60
2018-06-14T12:16:50.677Z,4.10
2018-06-14T12:19:19.608Z,3.30
2018-06-14T12:21:49.787Z,4.30
2018-06-14T12:24:18.742Z,3.43
2018-06-14T12:26:47.612Z,3.53
2018-06-14T12:29:16.489Z,3.20
2018-06-14T12:31:45.397Z,3.77
2018-06-14T12:34:14.304Z,3.47
2018-06-14T12:36:43.177Z,4.00
2018-06-14T12:39:12.047Z,3.72
2018-06-14T12:41:41.002Z,3.53
2018-06-14T12:44:09.973Z,3.80
2018-06-14T12:46:38.884Z,3.60
2018-06-14T12:49:07.890Z,4.40
2018-06-14T12:51:36.800Z,3.53
2018-06-14T12:54:06.534Z,4.03
2018-06-14T12:56:35.642Z,4.00
2018-06-14T12:59:04.510Z,4.05
2018-06-14T13:01:33.423Z,4.05
2018-06-14T13:04:02.409Z,4.00
2018-06-14T13:06:31.295Z,4.67
2018-06-14T13:09:00.391Z,4.50
2018-06-14T13:11:29.327Z,4.15
2018-06-14T13:13:58.203Z,4.40
2018-06-14T13:16:27.072Z,4.40
2018-06-14T13:18:55.978Z,4.30
2018-06-14T13:21:24.850Z,4.80
2018-06-14T13:23:53.779Z,6.27
2018-06-14T13:26:22.729Z,5.00
2018-06-14T13:28:51.666Z,6.03
2018-06-14T13:31:20.564Z,6.03
2018-06-14T13:33:49.464Z,6.13
2018-06-14T13:36:18.342Z,8.77
2018-06-14T13:38:47.225Z,8.57
2018-06-14T13:41:16.070Z,8.07
2018-06-14T13:43:45.014Z,8.45
2018-06-14T13:46:13.917Z,8.10
2018-06-14T13:48:42.877Z,7.50
2018-06-14T13:51:11.806Z,8.73
2018-06-14T13:53:40.684Z,8.43
2018-06-14T13:56:09.556Z,8.60
2018-06-14T13:58:38.601Z,8.23
2018-06-14T14:01:07.549Z,7.27
2018-06-14T14:03:36.451Z,7.60
2018-06-14T14:06:05.395Z,7.20
2018-06-14T14:08:34.312Z,7.75
2018-06-14T14:11:03.205Z,7.93
2018-06-14T14:13:32.118Z,6.67
2018-06-14T14:16:00.980Z,6.73
2018-06-14T14:18:30.057Z,6.40
2018-06-14T14:20:58.963Z,7.07
2018-06-14T14:23:27.845Z,7.00
2018-06-14T14:25:56.738Z,6.30
2018-06-14T14:28:26.689Z,5.75
2018-06-14T14:30:55.685Z,5.17
2018-06-14T14:33:24.632Z,5.57
2018-06-14T14:35:53.509Z,5.03
2018-06-14T14:38:22.449Z,5.73
2018-06-14T14:40:51.309Z,5.33
2018-06-14T14:43:20.257Z,6.92
2018-06-14T14:45:49.126Z,5.40
2018-06-14T14:48:18.574Z,5.10
2018-06-14T14:50:47.483Z,5.20
2018-06-14T14:53:16.491Z,5.17
2018-06-14T14:55:45.320Z,5.53
2018-06-14T14:58:15.624Z,5.55
2018-06-14T15:00:44.588Z,5.20
2018-06-14T15:03:13.545Z,5.20
2018-06-14T15:05:42.473Z,4.60
2018-06-14T15:08:12.049Z,4.60
2018-06-14T15:10:40.998Z,4.37
2018-06-14T15:13:09.849Z,5.03
2018-06-14T15:15:38.745Z,5.50
2018-06-14T15:18:07.679Z,4.20
2018-06-14T15:20:36.657Z,4.47
2018-06-14T15:23:05.609Z,4.77
2018-06-14T15:25:34.584Z,4.70
2018-06-14T15:28:03.599Z,4.50
2018-06-14T15:30:32.549Z,3.90
2018-06-14T15:33:01.436Z,4.13
2018-06-14T15:35:30.319Z,3.87
2018-06-14T15:37:59.222Z,4.07
2018-06-14T15:40:28.156Z,3.80
2018-06-14T15:42:57.074Z,5.00
2018-06-14T15:45:25.970Z,4.90
2018-06-14T15:47:54.877Z,5.57
2018-06-14T15:50:23.850Z,4.50
2018-06-14T15:52:52.796Z,4.62
2018-06-14T15:55:32.862Z,4.53
2018-06-14T15:58:01.831Z,5.30
2018-06-14T16:00:30.714Z,4.97
2018-06-14T16:02:59.686Z,4.15
2018-06-14T16:05:28.604Z,5.03
2018-06-14T16:08:19.036Z,4.60
2018-06-14T16:10:47.947Z,4.80
2018-06-14T16:13:16.861Z,4.60
2018-06-14T16:15:45.713Z,5.10
2018-06-14T16:18:16.365Z,5.04
2018-06-14T16:20:46.081Z,5.67
2018-06-14T16:23:15.773Z,5.07
2018-06-14T16:25:45.051Z,4.80
2018-06-14T16:28:13.921Z,5.47
2018-06-14T16:30:42.793Z,5.37
2018-06-14T16:33:11.700Z,4.77
2018-06-14T16:35:40.619Z,5.80
2018-06-14T16:38:10.564Z,4.47
2018-06-14T16:40:39.459Z,4.03
2018-06-14T16:43:08.309Z,4.60
2018-06-14T16:45:37.221Z,5.07
2018-06-14T16:48:06.123Z,5.43
2018-06-14T16:50:34.954Z,4.60
2018-06-14T16:53:03.904Z,5.00
2018-06-14T16:55:32.826Z,4.40
2018-06-14T16:58:02.085Z,5.30
2018-06-14T17:00:31.210Z,4.57
2018-06-14T17:03:00.182Z,4.50
2018-06-14T17:05:29.035Z,5.07
2018-06-14T17:07:57.908Z,8.63
2018-06-14T17:10:26.796Z,7.35
2018-06-14T17:12:55.741Z,9.13
2018-06-14T17:15:24.672Z,10.30
2018-06-14T17:17:53.516Z,15.13
2018-06-14T17:20:24.600Z,22.90
2018-06-14T17:22:53.525Z,25.35
2018-06-14T17:25:23.021Z,28.27
2018-06-14T17:27:51.988Z,33.43
2018-06-14T17:30:20.951Z,34.80
2018-06-14T17:32:49.878Z,37.30
2018-06-14T17:35:21.102Z,38.87
2018-06-14T17:37:50.060Z,37.67
2018-06-14T17:40:18.979Z,42.00
2018-06-14T17:42:47.954Z,39.03
2018-06-14T17:45:17.860Z,41.33
2018-06-14T17:47:46.758Z,39.90
2018-06-14T17:50:15.746Z,41.90
2018-06-14T17:52:44.658Z,41.10
2018-06-14T17:55:13.644Z,38.87
2018-06-14T17:57:42.781Z,37.90
2018-06-14T18:00:11.807Z,38.17
2018-06-14T18:02:40.748Z,38.23
2018-06-14T18:05:10.134Z,39.57
2018-06-14T18:07:39.535Z,39.33
2018-06-14T18:10:07.737Z,36.53
2018-06-14T18:12:36.804Z,42.80
2018-06-14T18:15:05.864Z,40.27
2018-06-14T18:17:34.824Z,35.58
2018-06-14T18:20:04.614Z,37.80
2018-06-14T18:22:33.962Z,38.97
2018-06-14T18:25:03.216Z,34.57
2018-06-14T18:27:32.129Z,32.70
2018-06-14T18:30:01.084Z,34.00
2018-06-14T18:32:29.947Z,35.80
2018-06-14T18:34:58.792Z,35.30
2018-06-14T18:37:27.691Z,34.88
2018-06-14T18:39:56.581Z,35.77
2018-06-14T18:42:25.398Z,36.33
2018-06-14T18:44:54.221Z,36.40
2018-06-14T18:47:23.037Z,38.53
2018-06-14T18:49:51.934Z,42.13
2018-06-14T18:52:21.587Z,34.13
2018-06-14T18:54:50.412Z,34.20
2018-06-14T18:57:24.771Z,37.50
2018-06-14T18:59:53.808Z,32.73
2018-06-14T19:02:22.761Z,32.63
2018-06-14T19:04:52.015Z,35.00
2018-06-14T19:07:21.010Z,35.00
2018-06-14T19:09:52.392Z,33.77
2018-06-14T19:12:21.245Z,30.83
2018-06-14T19:14:50.109Z,34.77
2018-06-14T19:17:19.468Z,36.13
2018-06-14T19:19:48.436Z,34.27
2018-06-14T19:22:17.335Z,34.53
2018-06-14T19:24:46.592Z,35.00
2018-06-14T19:27:15.451Z,37.30
2018-06-14T19:29:44.441Z,33.70
2018-06-14T19:32:15.541Z,34.03
2018-06-14T19:34:44.418Z,34.70
2018-06-14T19:37:13.395Z,35.40
2018-06-14T19:39:42.286Z,35.57
2018-06-14T19:42:11.151Z,35.45
2018-06-14T19:44:40.044Z,32.37
2018-06-14T19:47:09.530Z,30.27
2018-06-14T19:49:38.483Z,30.13
2018-06-14T19:52:07.363Z,32.43
2018-06-14T19:54:36.396Z,36.20
2018-06-14T19:57:05.300Z,35.70
2018-06-14T19:59:34.265Z,34.48
2018-06-14T20:02:03.164Z,32.60
2018-06-14T20:04:31.982Z,34.60
2018-06-14T20:07:00.888Z,33.00
2018-06-14T20:09:29.792Z,32.10
2018-06-14T20:11:58.723Z,33.92
2018-06-14T20:14:27.727Z,32.80
2018-06-14T20:16:56.724Z,29.98
2018-06-14T20:19:25.751Z,33.33
2018-06-14T20:21:54.647Z,32.03
2018-06-14T20:24:23.568Z,30.93
2018-06-14T20:26:52.462Z,31.20
2018-06-14T20:29:21.354Z,29.67
2018-06-14T20:31:50.305Z,29.90
2018-06-14T20:34:19.236Z,28.10
2018-06-14T20:36:48.115Z,29.63
2018-06-14T20:39:17.014Z,29.80
2018-06-14T20:41:46.005Z,29.40
2018-06-14T20:44:14.875Z,28.80
2018-06-14T20:46:43.756Z,28.53
2018-06-14T20:49:12.640Z,29.63
2018-06-14T20:51:41.591Z,28.33
2018-06-14T20:54:10.456Z,27.33
2018-06-14T20:56:39.323Z,27.43
2018-06-14T20:59:08.260Z,28.13
2018-06-14T21:01:37.188Z,25.87
2018-06-14T21:04:06.116Z,25.00
2018-06-14T21:06:35.045Z,26.17
2018-06-14T21:09:04.897Z,25.23
2018-06-14T21:11:33.780Z,25.85
2018-06-14T21:14:02.696Z,22.90
2018-06-14T21:16:31.713Z,24.70
2018-06-14T21:19:00.654Z,25.00
2018-06-14T21:21:29.597Z,23.40
2018-06-14T21:23:58.588Z,23.38
2018-06-14T21:26:27.541Z,22.37
2018-06-14T21:28:56.497Z,23.37
2018-06-14T21:31:25.367Z,22.90
2018-06-14T21:33:54.438Z,23.63
2018-06-14T21:36:23.277Z,22.65
2018-06-14T21:38:52.164Z,21.70
2018-06-14T21:41:21.023Z,23.00
2018-06-14T21:43:49.813Z,22.15
2018-06-14T21:46:18.729Z,22.10
2018-06-14T21:48:47.565Z,21.65
2018-06-14T21:51:16.466Z,20.85
2018-06-14T21:53:45.342Z,21.45
2018-06-14T21:56:14.228Z,21.77
2018-06-14T21:58:43.290Z,22.13
2018-06-14T22:01:12.795Z,21.70
2018-06-14T22:03:47.054Z,23.42
2018-06-14T22:06:15.889Z,25.17
2018-06-14T22:08:44.849Z,23.40
2018-06-14T22:11:14.168Z,22.73
2018-06-14T22:13:43.111Z,23.22
2018-06-14T22:16:12.152Z,24.00
2018-06-14T22:18:41.150Z,25.43
2018-06-14T22:21:11.341Z,25.00
2018-06-14T22:23:42.236Z,24.00
2018-06-14T22:26:12.957Z,25.00
2018-06-14T22:28:42.601Z,25.47
2018-06-14T22:31:12.679Z,25.90
2018-06-14T22:33:52.690Z,25.37
2018-06-14T22:36:21.568Z,25.73
2018-06-14T22:38:50.918Z,25.27
2018-06-14T22:41:21.332Z,27.57
2018-06-14T22:43:50.313Z,27.60
2018-06-14T22:46:19.194Z,28.80
2018-06-14T22:48:48.073Z,25.07
2018-06-14T22:51:19.713Z,26.80
2018-06-14T22:53:48.681Z,28.03
2018-06-14T22:56:17.516Z,27.93
2018-06-14T22:58:49.289Z,28.43
2018-06-14T23:01:35.837Z,27.32
2018-06-14T23:04:05.365Z,27.17
2018-06-14T23:06:34.265Z,27.53
2018-06-14T23:11:19.357Z,28.57
2018-06-14T23:13:48.213Z,27.50
2018-06-14T23:16:17.115Z,30.00
2018-06-14T23:18:46.809Z,26.20
2018-06-14T23:21:17.383Z,28.17
2018-06-14T23:23:46.348Z,28.87
2018-06-14T23:26:15.480Z,26.70
2018-06-14T23:28:44.420Z,30.23
2018-06-14T23:31:13.285Z,27.40
2018-06-14T23:33:42.124Z,28.38
2018-06-14T23:36:11.010Z,30.27
2018-06-14T23:38:39.837Z,29.10
2018-06-14T23:41:08.682Z,27.63
2018-06-14T23:43:37.634Z,27.75
2018-06-14T23:46:06.507Z,28.60
2018-06-14T23:48:35.414Z,27.97
2018-06-14T23:51:04.267Z,28.00
2018-06-14T23:53:33.140Z,28.80
2018-06-14T23:56:02.049Z,28.80
2018-06-14T23:58:30.938Z,29.27
